Time;durP1;ratioP1;P1;durP2;ratioP2;P2;SDS_P1;SDS_P2;PMS_P1;PMS_P2;Temp;Humidity;BMP_temperature;BMP_pressure;BME280_temperature;BME280_humidity;BME280_pressure;Samples;Min_cycle;Max_cycle;Signal;HPM_P1;HPM_P2
2023/04/15 00:01:48;;;;;;;;;;;;;;;-142.25;100.00;58004.16;4910882;29;20422;-61
2023/04/15 00:04:13;;;;;;;;;;;;;;;-142.25;100.00;58004.16;4910969;29;20403;-62
2023/04/15 00:06:39;;;;;;;;;;;;;;;-142.25;100.00;58004.16;4911439;29;20470;-63
2023/04/15 00:09:05;;;;;;;;;;;;;;;-142.25;100.00;58004.16;4911265;29;20016;-62
2023/04/15 00:11:30;;;;;;;;;;;;;;;-142.25;100.00;58004.16;4912381;29;20001;-61
2023/04/15 00:13:57;;;;;;;;;;;;;;;-142.25;100.00;58004.16;4910291;29;19948;-61
2023/04/15 00:16:22;;;;;;;;;;;;;;;-142.25;100.00;58004.16;4909812;29;19944;-61
2023/04/15 00:18:48;;;;;;;;;;;;;;;-142.25;100.00;58004.16;4912408;29;19978;-62
2023/04/15 00:21:13;;;;;;;;;;;;;;;-142.25;100.00;58004.16;4924142;29;20061;-61
2023/04/15 00:23:39;;;;;;;;;;;;;;;-142.25;100.00;58004.16;4909579;29;20222;-61
2023/04/15 00:26:04;;;;;;;;;;;;;;;-142.25;100.00;58004.16;4911945;29;19948;-62
2023/04/15 00:28:31;;;;;;;;;;;;;;;-142.25;100.00;58004.16;4910902;29;20543;-62
2023/04/15 00:30:56;;;;;;;;;;;;;;;-142.25;100.00;58004.16;4910131;29;20008;-62
2023/04/15 00:33:22;;;;;;;;;;;;;;;-142.25;100.00;58004.16;4911394;29;20393;-62
2023/04/15 00:35:47;;;;;;;;;;;;;;;-142.25;100.00;58004.16;4909771;29;20030;-61
2023/04/15 00:38:13;;;;;;;;;;;;;;;-142.25;100.00;58004.16;4910314;29;19945;-62
2023/04/15 00:40:40;;;;;;;;;;;;;;;-142.25;100.00;58004.16;4908358;29;19969;-62
2023/04/15 00:43:05;;;;;;;;;;;;;;;-142.25;100.00;58004.16;4911029;29;19951;-62
2023/04/15 00:45:32;;;;;;;;;;;;;;;-142.25;100.00;58004.16;4913636;29;20441;-62
2023/04/15 00:47:58;;;;;;;;;;;;;;;-142.25;100.00;58004.16;4910354;29;19972;-62
2023/04/15 00:50:24;;;;;;;;;;;;;;;-142.25;100.00;58004.16;4913741;29;19989;-63
2023/04/15 00:52:49;;;;;;;;;;;;;;;-142.25;100.00;58004.16;4914409;29;20409;-62
2023/04/15 00:55:15;;;;;;;;;;;;;;;-142.25;100.00;58004.16;4911929;29;19948;-62
2023/04/15 00:57:40;;;;;;;;;;;;;;;-142.25;100.00;58004.16;4914584;29;20411;-62
2023/04/15 01:00:10;;;;;;;;;;;;;;;-142.25;100.00;58004.16;4912956;29;20004;-61
2023/04/15 01:02:36;;;;;;;;;;;;;;;-142.25;100.00;58004.16;4915689;29;19951;-60
2023/04/15 01:05:06;;;;;;;;;;;;;;;-142.25;100.00;58004.16;4923935;29;19987;-60
2023/04/15 01:07:33;;;;;;;;;;;;;;;-142.25;100.00;58004.16;4914623;29;20517;-60
2023/04/15 01:09:59;;;;;;;;;;;;;;;-142.25;100.00;58004.16;4912272;29;19955;-60
2023/04/15 01:12:25;;;;;;;;;;;;;;;-142.25;100.00;58004.16;4913332;29;20295;-61
2023/04/15 01:14:52;;;;;;;;;;;;;;;-142.25;100.00;58004.16;4914270;29;20018;-60
2023/04/15 01:17:19;;;;;;;;;;;;;;;-142.25;100.00;58004.16;4927891;29;20391;-62
2023/04/15 01:19:45;;;;;;;;;;;;;;;-142.25;100.00;58004.16;4913626;29;20101;-61
2023/04/15 01:22:11;;;;;;;;;;;;;;;-142.25;100.00;58004.16;4914484;29;20022;-60
2023/04/15 01:24:37;;;;;;;;;;;;;;;-142.25;100.00;58004.16;4914015;29;19949;-61
2023/04/15 01:27:04;;;;;;;;;;;;;;;-142.25;100.00;58004.16;4913347;29;19959;-61
2023/04/15 01:29:31;;;;;;;;;;;;;;;-142.25;100.00;58004.16;4928294;29;19951;-60
2023/04/15 01:31:56;;;;;;;;;;;;;;;-142.25;100.00;58004.16;4904911;29;19974;-61
2023/04/15 01:34:25;;;;;;;;;;;;;;;-142.25;100.00;58004.16;4912909;29;20490;-62
2023/04/15 01:36:52;;;;;;;;;;;;;;;-142.25;100.00;58004.16;4914671;29;20040;-60
2023/04/15 01:39:20;;;;;;;;;;;;;;;-142.25;100.00;58004.16;4911775;29;19970;-61
2023/04/15 01:41:46;;;;;;;;;;;;;;;-142.25;100.00;58004.16;4911970;29;19984;-61
2023/04/15 01:44:11;;;;;;;;;;;;;;;-142.25;100.00;58004.16;4914052;29;20366;-61
2023/04/15 01:46:38;;;;;;;;;;;;;;;-142.25;100.00;58004.16;4911439;29;20354;-61
2023/04/15 01:49:04;;;;;;;;;;;;;;;-142.25;100.00;58004.16;4912007;29;20013;-61
2023/04/15 01:51:31;;;;;;;;;;;;;;;-142.25;100.00;58004.16;4928656;29;19947;-61
2023/04/15 01:53:56;;;;;;;;;;;;;;;-142.25;100.00;58004.16;4913179;29;19947;-61
2023/04/15 01:56:25;;;;;;;;;;;;;;;-142.25;100.00;58004.16;4913509;29;19959;-61
2023/04/15 01:58:51;;;;;;;;;;;;;;;-142.25;100.00;58004.16;4929664;29;20452;-60
2023/04/15 02:01:18;;;;;;;;;;;;;;;-142.25;100.00;58004.16;4911324;29;20481;-61
2023/04/15 02:03:44;;;;;;;;;;;;;;;-142.25;100.00;58004.16;4911902;29;20654;-61
2023/04/15 02:06:09;;;;;;;;;;;;;;;-142.25;100.00;58004.16;4913324;29;20307;-63
2023/04/15 02:08:34;;;;;;;;;;;;;;;-142.25;100.00;58004.16;4911890;29;19969;-61
2023/04/15 02:11:00;;;;;;;;;;;;;;;-142.25;100.00;58004.16;4913717;29;19952;-61
2023/04/15 02:13:27;;;;;;;;;;;;;;;-142.25;100.00;58004.16;4912747;29;20049;-61
2023/04/15 02:15:55;;;;;;;;;;;;;;;-142.25;100.00;58004.16;4913926;29;19947;-60
2023/04/15 02:18:21;;;;;;;;;;;;;;;-142.25;100.00;58004.16;4912994;29;20191;-61
2023/04/15 02:20:47;;;;;;;;;;;;;;;-142.25;100.00;58004.16;4914294;29;19976;-60
2023/04/15 02:23:13;;;;;;;;;;;;;;;-142.25;100.00;58004.16;4913898;29;19951;-61
2023/04/15 02:25:38;;;;;;;;;;;;;;;-142.25;100.00;58004.16;4912558;29;19967;-61
2023/04/15 02:28:05;;;;;;;;;;;;;;;-142.25;100.00;58004.16;4927338;29;19954;-60
2023/04/15 02:30:31;;;;;;;;;;;;;;;-142.25;100.00;58004.16;4911565;29;19949;-62
2023/04/15 02:33:00;;;;;;;;;;;;;;;-142.25;100.00;58004.16;4914195;29;20033;-62
2023/04/15 02:35:26;;;;;;;;;;;;;;;-142.25;100.00;58004.16;4912324;29;20462;-61
2023/04/15 02:37:52;;;;;;;;;;;;;;;-142.25;100.00;58004.16;4927576;29;20391;-62
2023/04/15 02:40:17;;;;;;;;;;;;;;;-142.25;100.00;58004.16;4910168;29;19958;-61
2023/04/15 02:42:44;;;;;;;;;;;;;;;-142.25;100.00;58004.16;4906112;29;19955;-62
2023/04/15 02:45:12;;;;;;;;;;;;;;;-142.25;100.00;58004.16;4912443;29;20489;-61
2023/04/15 02:47:42;;;;;;;;;;;;;;;-142.25;100.00;58004.16;4911086;29;19955;-61
2023/04/15 02:50:11;;;;;;;;;;;;;;;-142.25;100.00;58004.16;4910425;29;19959;-61
2023/04/15 02:52:41;;;;;;;;;;;;;;;-142.25;100.00;58004.16;4928226;29;20160;-62
2023/04/15 02:55:07;;;;;;;;;;;;;;;-142.25;100.00;58004.16;4927166;29;19970;-62
2023/04/15 02:57:34;;;;;;;;;;;;;;;-142.25;100.00;58004.16;4909556;29;20008;-60
2023/04/15 03:00:04;;;;;;;;;;;;;;;-142.25;100.00;58004.16;4911474;29;19963;-61
2023/04/15 03:02:34;;;;;;;;;;;;;;;-142.25;100.00;58004.16;4897870;29;20392;-61
2023/04/15 03:05:00;;;;;;;;;;;;;;;-142.25;100.00;58004.16;4912244;29;20030;-61
2023/04/15 03:07:26;;;;;;;;;;;;;;;-142.25;100.00;58004.16;4910868;29;20064;-61
2023/04/15 03:09:52;;;;;;;;;;;;;;;-142.25;100.00;58004.16;4912025;29;19951;-61
2023/04/15 03:12:18;;;;;;;;;;;;;;;-142.25;100.00;58004.16;4925336;29;20351;-60
2023/04/15 03:14:43;;;;;;;;;;;;;;;-142.25;100.00;58004.16;4909314;29;19948;-60
2023/04/15 03:17:09;;;;;;;;;;;;;;;-142.25;100.00;58004.16;4912289;29;20070;-61
2023/04/15 03:19:34;;;;;;;;;;;;;;;-142.25;100.00;58004.16;4912390;29;20269;-60
2023/04/15 03:22:01;;;;;;;;;;;;;;;-142.25;100.00;58004.16;4910005;29;19950;-62
2023/04/15 03:24:28;;;;;;;;;;;;;;;-142.25;100.00;58004.16;4912847;29;20049;-61
2023/04/15 03:26:56;;;;;;;;;;;;;;;-142.25;100.00;58004.16;4928038;29;19990;-60
2023/04/15 03:29:22;;;;;;;;;;;;;;;-142.25;100.00;58004.16;4927650;29;20075;-60
2023/04/15 03:31:48;;;;;;;;;;;;;;;-142.25;100.00;58004.16;4921920;29;19946;-61
2023/04/15 03:34:15;;;;;;;;;;;;;;;-142.25;100.00;58004.16;4911824;29;19965;-60
2023/04/15 03:36:40;;;;;;;;;;;;;;;-142.25;100.00;58004.16;4914050;29;19947;-61
2023/04/15 03:39:06;;;;;;;;;;;;;;;-142.25;100.00;58004.16;4910973;29;19952;-60
2023/04/15 03:41:31;;;;;;;;;;;;;;;-142.25;100.00;58004.16;4913767;29;19943;-62
2023/04/15 03:43:57;;;;;;;;;;;;;;;-142.25;100.00;58004.16;4913802;29;19942;-62
2023/04/15 03:46:22;;;;;;;;;;;;;;;-142.25;100.00;58004.16;4912740;29;20427;-62
2023/04/15 03:48:48;;;;;;;;;;;;;;;-142.25;100.00;58004.16;4912288;29;20349;-62
2023/04/15 03:51:13;;;;;;;;;;;;;;;-142.25;100.00;58004.16;4912543;29;20034;-62
2023/04/15 03:53:39;;;;;;;;;;;;;;;-142.25;100.00;58004.16;4912692;29;19952;-63
2023/04/15 03:56:04;;;;;;;;;;;;;;;-142.25;100.00;58004.16;4914100;29;19955;-62
2023/04/15 03:58:30;;;;;;;;;;;;;;;-142.25;100.00;58004.16;4911529;29;19967;-62
2023/04/15 04:00:55;;;;;;;;;;;;;;;-142.25;100.00;58004.16;4912478;29;20080;-60
2023/04/15 04:03:21;;;;;;;;;;;;;;;-142.25;100.00;58004.16;4914382;29;20009;-61
2023/04/15 04:05:46;;;;;;;;;;;;;;;-142.25;100.00;58004.16;4912213;29;20481;-61
2023/04/15 04:08:15;;;;;;;;;;;;;;;-142.25;100.00;58004.16;4912534;29;20047;-61
2023/04/15 04:10:40;;;;;;;;;;;;;;;-142.25;100.00;58004.16;4910951;29;19977;-61
2023/04/15 04:13:06;;;;;;;;;;;;;;;-142.25;100.00;58004.16;4912890;29;20494;-61
2023/04/15 04:15:31;;;;;;;;;;;;;;;-142.25;100.00;58004.16;4911925;29;20407;-61
2023/04/15 04:17:57;;;;;;;;;;;;;;;-142.25;100.00;58004.16;4912575;29;19951;-61
2023/04/15 04:20:22;;;;;;;;;;;;;;;-142.25;100.00;58004.16;4914575;29;20053;-61
2023/04/15 04:22:48;;;;;;;;;;;;;;;-142.25;100.00;58004.16;4912169;29;20414;-60
2023/04/15 04:25:15;;;;;;;;;;;;;;;-142.25;100.00;58004.16;4916592;29;19942;-62
2023/04/15 04:27:40;;;;;;;;;;;;;;;-142.25;100.00;58004.16;4917877;29;20345;-61
2023/04/15 04:30:07;;;;;;;;;;;;;;;-142.25;100.00;58004.16;4918047;29;19942;-63
2023/04/15 04:32:32;;;;;;;;;;;;;;;-142.25;100.00;58004.16;4918028;29;19952;-62
2023/04/15 04:34:57;;;;;;;;;;;;;;;-142.25;100.00;58004.16;4919189;29;19979;-62
2023/04/15 04:37:23;;;;;;;;;;;;;;;-142.25;100.00;58004.16;4916550;29;19975;-61
2023/04/15 04:39:49;;;;;;;;;;;;;;;-142.25;100.00;58004.16;4918016;28;19965;-60
2023/04/15 04:42:15;;;;;;;;;;;;;;;-142.25;100.00;58004.16;4918772;29;20209;-64
2023/04/15 04:44:40;;;;;;;;;;;;;;;-142.25;100.00;58004.16;4917507;29;20558;-62
2023/04/15 04:47:06;;;;;;;;;;;;;;;-142.25;100.00;58004.16;4918435;29;19949;-61
2023/04/15 04:49:32;;;;;;;;;;;;;;;-142.25;100.00;58004.16;4917279;29;19950;-61
2023/04/15 04:51:58;;;;;;;;;;;;;;;-142.25;100.00;58004.16;4923323;29;20427;-61
2023/04/15 04:54:23;;;;;;;;;;;;;;;-142.25;100.00;58004.16;4916441;29;19948;-61
2023/04/15 04:56:49;;;;;;;;;;;;;;;-142.25;100.00;58004.16;4916756;29;20321;-61
2023/04/15 04:59:14;;;;;;;;;;;;;;;-142.25;100.00;58004.16;4916738;29;20379;-62
2023/04/15 05:01:40;;;;;;;;;;;;;;;-142.25;100.00;58004.16;4917649;29;19949;-62
2023/04/15 05:04:06;;;;;;;;;;;;;;;-142.25;100.00;58004.16;4916544;29;20392;-62
2023/04/15 05:06:32;;;;;;;;;;;;;;;-142.25;100.00;58004.16;4932450;29;20043;-61
2023/04/15 05:08:57;;;;;;;;;;;;;;;-142.25;100.00;58004.16;4917648;29;19951;-62
2023/04/15 05:11:23;;;;;;;;;;;;;;;-142.25;100.00;58004.16;4916667;29;19958;-62
2023/04/15 05:13:49;;;;;;;;;;;;;;;-142.25;100.00;58004.16;4918352;29;20041;-61
2023/04/15 05:16:14;;;;;;;;;;;;;;;-142.25;100.00;58004.16;4917418;29;20439;-61
2023/04/15 05:18:40;;;;;;;;;;;;;;;-142.25;100.00;58004.16;4916273;29;20476;-61
2023/04/15 05:21:05;;;;;;;;;;;;;;;-142.25;100.00;58004.16;4918143;29;19968;-62
2023/04/15 05:23:31;;;;;;;;;;;;;;;-142.25;100.00;58004.16;4916447;29;20032;-62
2023/04/15 05:25:57;;;;;;;;;;;;;;;-142.25;100.00;58004.16;4917832;29;19947;-61
2023/04/15 05:28:22;;;;;;;;;;;;;;;-142.25;100.00;58004.16;4917484;29;20140;-61
2023/04/15 05:30:47;;;;;;;;;;;;;;;-142.25;100.00;58004.16;4918003;29;20298;-61
2023/04/15 05:33:13;;;;;;;;;;;;;;;-142.25;100.00;58004.16;4918020;29;20103;-62
2023/04/15 05:35:38;;;;;;;;;;;;;;;-142.25;100.00;58004.16;4917262;29;20337;-61
2023/04/15 05:38:04;;;;;;;;;;;;;;;-142.25;100.00;58004.16;4915170;29;20276;-61
2023/04/15 05:40:29;;;;;;;;;;;;;;;-142.25;100.00;58004.16;4915697;29;20253;-62
2023/04/15 05:42:55;;;;;;;;;;;;;;;-142.25;100.00;58004.16;4915448;29;19961;-61
2023/04/15 05:45:21;;;;;;;;;;;;;;;-142.25;100.00;58004.16;4915487;29;20060;-61
2023/04/15 05:47:46;;;;;;;;;;;;;;;-142.25;100.00;58004.16;4914443;29;20502;-61
2023/04/15 05:50:12;;;;;;;;;;;;;;;-142.25;100.00;58004.16;4912372;29;20402;-61
2023/04/15 05:52:37;;;;;;;;;;;;;;;-142.25;100.00;58004.16;4912123;29;19945;-61
2023/04/15 05:55:03;;;;;;;;;;;;;;;-142.25;100.00;58004.16;4913228;29;19958;-63
2023/04/15 05:57:29;;;;;;;;;;;;;;;-142.25;100.00;58004.16;4912935;29;20473;-61
2023/04/15 05:59:56;;;;;;;;;;;;;;;-142.25;100.00;58004.16;4913488;29;20403;-62
2023/04/15 06:02:21;;;;;;;;;;;;;;;-142.25;100.00;58004.16;4912625;29;20370;-61
2023/04/15 06:04:47;;;;;;;;;;;;;;;-142.25;100.00;58004.16;4912364;29;20356;-61
2023/04/15 06:07:12;;;;;;;;;;;;;;;-142.25;100.00;58004.16;4911023;29;19956;-61
2023/04/15 06:09:38;;;;;;;;;;;;;;;-142.25;100.00;58004.16;4913787;29;19957;-62
2023/04/15 06:12:05;;;;;;;;;;;;;;;-142.25;100.00;58004.16;4913852;29;19948;-61
2023/04/15 06:14:31;;;;;;;;;;;;;;;-142.25;100.00;58004.16;4914135;29;19974;-62
2023/04/15 06:16:56;;;;;;;;;;;;;;;-142.25;100.00;58004.16;4912045;29;19996;-61
2023/04/15 06:19:21;;;;;;;;;;;;;;;-142.25;100.00;58004.16;4913056;29;19948;-61
2023/04/15 06:21:47;;;;;;;;;;;;;;;-142.25;100.00;58004.16;4913298;29;20381;-62
2023/04/15 06:24:13;;;;;;;;;;;;;;;-142.25;100.00;58004.16;4914316;29;20511;-62
2023/04/15 06:26:38;;;;;;;;;;;;;;;-142.25;100.00;58004.16;4913940;29;20293;-62
2023/04/15 06:29:04;;;;;;;;;;;;;;;-142.25;100.00;58004.16;4914316;29;19955;-63
2023/04/15 06:31:30;;;;;;;;;;;;;;;-142.25;100.00;58004.16;4915224;29;19983;-62
2023/04/15 06:33:55;;;;;;;;;;;;;;;-142.25;100.00;58004.16;4912234;29;19965;-62
2023/04/15 06:36:21;;;;;;;;;;;;;;;-142.25;100.00;58004.16;4914505;29;20000;-64
2023/04/15 06:38:46;;;;;;;;;;;;;;;-142.25;100.00;58004.16;4913838;29;19948;-62
2023/04/15 06:41:12;;;;;;;;;;;;;;;-142.25;100.00;58004.16;4916448;29;20462;-62
2023/04/15 06:43:37;;;;;;;;;;;;;;;-142.25;100.00;58004.16;4915489;29;20352;-64
2023/04/15 06:46:03;;;;;;;;;;;;;;;-142.25;100.00;58004.16;4912715;29;19944;-63
2023/04/15 06:48:29;;;;;;;;;;;;;;;-142.25;100.00;58004.16;4913647;29;20002;-63
2023/04/15 06:50:55;;;;;;;;;;;;;;;-142.25;100.00;58004.16;4912786;29;19951;-63
2023/04/15 06:53:21;;;;;;;;;;;;;;;-142.25;100.00;58004.16;4913783;29;19942;-63
2023/04/15 06:55:46;;;;;;;;;;;;;;;-142.25;100.00;58004.16;4918120;29;20022;-62
2023/04/15 06:58:11;;;;;;;;;;;;;;;-142.25;100.00;58004.16;4911900;29;20426;-61
2023/04/15 07:00:38;;;;;;;;;;;;;;;-142.25;100.00;58004.16;4911860;29;20018;-61
2023/04/15 07:03:03;;;;;;;;;;;;;;;-142.25;100.00;58004.16;4912898;29;20431;-62
2023/04/15 07:05:29;;;;;;;;;;;;;;;-142.25;100.00;58004.16;4910510;29;19964;-59
2023/04/15 07:07:56;;;;;;;;;;;;;;;-142.25;100.00;58004.16;4912803;29;19944;-61
2023/04/15 07:10:21;;;;;;;;;;;;;;;-142.25;100.00;58004.16;4911760;29;19951;-60
2023/04/15 07:12:47;;;;;;;;;;;;;;;-142.25;100.00;58004.16;4912821;29;20693;-59
2023/04/15 07:15:12;;;;;;;;;;;;;;;-142.25;100.00;58004.16;4892084;29;20404;-60
2023/04/15 07:17:38;;;;;;;;;;;;;;;-142.25;100.00;58004.16;4910702;29;20005;-60
2023/04/15 07:20:04;;;;;;;;;;;;;;;-142.25;100.00;58004.16;4909879;29;20030;-60
2023/04/15 07:22:29;;;;;;;;;;;;;;;-142.25;100.00;58004.16;4912575;29;19946;-60
2023/04/15 07:24:55;;;;;;;;;;;;;;;-142.25;100.00;58004.16;4911035;29;20301;-60
2023/04/15 07:27:21;;;;;;;;;;;;;;;-142.25;100.00;58004.16;4911038;29;20121;-60
2023/04/15 07:29:47;;;;;;;;;;;;;;;-142.25;100.00;58004.16;4909938;29;19947;-60
2023/04/15 07:32:12;;;;;;;;;;;;;;;-142.25;100.00;58004.16;4910761;29;19949;-60
2023/04/15 07:34:38;;;;;;;;;;;;;;;-142.25;100.00;58004.16;4911832;29;20334;-60
2023/04/15 07:37:04;;;;;;;;;;;;;;;-142.25;100.00;58004.16;4911926;29;19949;-60
2023/04/15 07:39:29;;;;;;;;;;;;;;;-142.25;100.00;58004.16;4917841;29;19955;-64
2023/04/15 07:41:55;;;;;;;;;;;;;;;-142.25;100.00;58004.16;4912353;29;19953;-60
2023/04/15 07:44:20;;;;;;;;;;;;;;;-142.25;100.00;58004.16;4912525;29;20291;-60
2023/04/15 07:46:46;;;;;;;;;;;;;;;-142.25;100.00;58004.16;4911373;29;19955;-60
2023/04/15 07:49:12;;;;;;;;;;;;;;;-142.25;100.00;58004.16;4911250;29;19953;-61
2023/04/15 07:51:37;;;;;;;;;;;;;;;-142.25;100.00;58004.16;4910890;29;19950;-61
2023/04/15 07:54:03;;;;;;;;;;;;;;;-142.25;100.00;58004.16;4909348;29;19949;-61
2023/04/15 07:56:28;;;;;;;;;;;;;;;-142.25;100.00;58004.16;4911701;29;19952;-60
2023/04/15 07:58:54;;;;;;;;;;;;;;;-142.25;100.00;58004.16;4910368;29;19960;-60
2023/04/15 08:01:19;;;;;;;;;;;;;;;-142.25;100.00;58004.16;4912927;29;19975;-60
2023/04/15 08:03:45;;;;;;;;;;;;;;;-142.25;100.00;58004.16;4911092;29;20043;-61
2023/04/15 08:06:11;;;;;;;;;;;;;;;-142.25;100.00;58004.16;4910887;29;20673;-61
2023/04/15 08:08:36;;;;;;;;;;;;;;;-142.25;100.00;58004.16;4911258;29;19951;-62
2023/04/15 08:11:02;;;;;;;;;;;;;;;-142.25;100.00;58004.16;4911930;29;20035;-61
2023/04/15 08:13:27;;;;;;;;;;;;;;;-142.25;100.00;58004.16;4912096;29;19947;-61
2023/04/15 08:16:13;;;;;;;;;;;;;;;-142.25;100.00;58004.16;4912581;29;20032;-61
2023/04/15 08:18:38;;;;;;;;;;;;;;;-142.25;100.00;58004.16;4912082;29;20654;-63
2023/04/15 08:21:07;;;;;;;;;;;;;;;-142.25;100.00;58004.16;4909364;29;20445;-60
2023/04/15 08:23:33;;;;;;;;;;;;;;;-142.25;100.00;58004.16;4908746;29;19939;-60
2023/04/15 08:25:59;;;;;;;;;;;;;;;-142.25;100.00;58004.16;4914239;29;20086;-60
2023/04/15 08:28:24;;;;;;;;;;;;;;;-142.25;100.00;58004.16;4912526;29;19946;-61
2023/04/15 08:30:51;;;;;;;;;;;;;;;-142.25;100.00;58004.16;4911490;29;20497;-61
2023/04/15 08:33:16;;;;;;;;;;;;;;;-142.25;100.00;58004.16;4911634;29;19955;-61
2023/04/15 08:35:42;;;;;;;;;;;;;;;-142.25;100.00;58004.16;4911458;29;19948;-62
2023/04/15 08:38:08;;;;;;;;;;;;;;;-142.25;100.00;58004.16;4911545;29;19946;-61
2023/04/15 08:40:40;;;;;;;;;;;;;;;-142.25;100.00;58004.16;4918051;29;19964;-61
2023/04/15 08:43:08;;;;;;;;;;;;;;;-142.25;100.00;58004.16;4910351;29;19985;-61
2023/04/15 08:45:34;;;;;;;;;;;;;;;-142.25;100.00;58004.16;4910902;29;19949;-61
2023/04/15 08:48:02;;;;;;;;;;;;;;;-142.25;100.00;58004.16;4912769;29;19999;-61
2023/04/15 08:50:28;;;;;;;;;;;;;;;-142.25;100.00;58004.16;4915981;29;19952;-60
2023/04/15 08:52:54;;;;;;;;;;;;;;;-142.25;100.00;58004.16;4910881;29;20475;-61
2023/04/15 08:55:23;;;;;;;;;;;;;;;-142.25;100.00;58004.16;4910472;29;19946;-62
2023/04/15 08:57:50;;;;;;;;;;;;;;;-142.25;100.00;58004.16;4911385;29;20481;-62
2023/04/15 09:00:16;;;;;;;;;;;;;;;-142.25;100.00;58004.16;4911155;29;19969;-60
2023/04/15 09:02:41;;;;;;;;;;;;;;;-142.25;100.00;58004.16;4911581;29;19951;-60
2023/04/15 09:05:07;;;;;;;;;;;;;;;-142.25;100.00;58004.16;4910735;29;20507;-60
2023/04/15 09:07:34;;;;;;;;;;;;;;;-142.25;100.00;58004.16;4911202;29;19945;-61
2023/04/15 09:10:00;;;;;;;;;;;;;;;-142.25;100.00;58004.16;4911175;29;20409;-61
2023/04/15 09:12:26;;;;;;;;;;;;;;;-142.25;100.00;58004.16;4915251;29;19991;-61
2023/04/15 09:14:51;;;;;;;;;;;;;;;-142.25;100.00;58004.16;4914411;29;20056;-61
2023/04/15 09:17:20;;;;;;;;;;;;;;;-142.25;100.00;58004.16;4914001;29;20033;-61
2023/04/15 09:19:46;;;;;;;;;;;;;;;-142.25;100.00;58004.16;4916886;29;19988;-65
2023/04/15 09:22:12;;;;;;;;;;;;;;;-142.25;100.00;58004.16;4913820;29;20052;-62
2023/04/15 09:24:39;;;;;;;;;;;;;;;-142.25;100.00;58004.16;4915551;29;20005;-61
2023/04/15 09:27:05;;;;;;;;;;;;;;;-142.25;100.00;58004.16;4914874;29;20420;-62
2023/04/15 09:29:31;;;;;;;;;;;;;;;-142.25;100.00;58004.16;4914303;28;20322;-61
2023/04/15 09:32:07;;;;;;;;;;;;;;;-142.25;100.00;58004.16;4914988;29;19954;-60
2023/04/15 09:34:36;;;;;;;;;;;;;;;-142.25;100.00;58004.16;4913313;29;19950;-62
2023/04/15 09:37:02;;;;;;;;;;;;;;;-142.25;100.00;58004.16;4913932;29;19956;-61
2023/04/15 09:39:44;;;;;;;;;;;;;;;-142.25;100.00;58004.16;4913474;29;19945;-61
2023/04/15 09:42:10;;;;;;;;;;;;;;;-142.25;100.00;58004.16;4915378;29;20054;-61
2023/04/15 09:44:36;;;;;;;;;;;;;;;-142.25;100.00;58004.16;4899050;29;19955;-64
2023/04/15 09:47:02;;;;;;;;;;;;;;;-142.25;100.00;58004.16;4916947;29;20174;-62
2023/04/15 09:49:27;;;;;;;;;;;;;;;-142.25;100.00;58004.16;4914999;29;20360;-63
2023/04/15 09:51:57;;;;;;;;;;;;;;;-142.25;100.00;58004.16;4913603;29;19943;-63
2023/04/15 09:54:22;;;;;;;;;;;;;;;-142.25;100.00;58004.16;4914979;29;19956;-62
2023/04/15 09:56:48;;;;;;;;;;;;;;;-142.25;100.00;58004.16;4914265;29;20439;-62
2023/04/15 09:59:14;;;;;;;;;;;;;;;-142.25;100.00;58004.16;4914473;29;19950;-62
2023/04/15 10:01:41;;;;;;;;;;;;;;;-142.25;100.00;58004.16;4913343;29;20029;-65
2023/04/15 10:04:07;;;;;;;;;;;;;;;-142.25;100.00;58004.16;4912758;29;19935;-63
2023/04/15 10:06:33;;;;;;;;;;;;;;;-142.25;100.00;58004.16;4914429;29;20216;-63
2023/04/15 10:09:01;;;;;;;;;;;;;;;-142.25;100.00;58004.16;4913038;29;20146;-61
2023/04/15 10:11:28;;;;;;;;;;;;;;;-142.25;100.00;58004.16;4912361;29;19949;-64
2023/04/15 10:13:55;;;;;;;;;;;;;;;-142.25;100.00;58004.16;4912838;29;19946;-63
2023/04/15 10:16:21;;;;;;;;;;;;;;;-142.25;100.00;58004.16;4913730;29;20376;-61
2023/04/15 10:18:50;;;;;;;;;;;;;;;-142.25;100.00;58004.16;4913624;29;19953;-61
2023/04/15 10:21:17;;;;;;;;;;;;;;;-142.25;100.00;58004.16;4910357;29;19964;-63
2023/04/15 10:23:44;;;;;;;;;;;;;;;-142.25;100.00;58004.16;4910551;29;20016;-61
2023/04/15 10:26:11;;;;;;;;;;;;;;;-142.25;100.00;58004.16;4914356;29;19953;-61
2023/04/15 10:28:37;;;;;;;;;;;;;;;-142.25;100.00;58004.16;4913810;29;20013;-62
2023/04/15 10:31:04;;;;;;;;;;;;;;;-142.25;100.00;58004.16;4912532;29;19977;-62
2023/04/15 10:33:29;;;;;;;;;;;;;;;-142.25;100.00;58004.16;4920004;29;19975;-62
2023/04/15 10:35:55;;;;;;;;;;;;;;;-142.25;100.00;58004.16;4913457;29;19945;-62
2023/04/15 10:38:32;;;;;;;;;;;;;;;-142.25;100.00;58004.16;4913398;29;19979;-60
2023/04/15 10:41:17;;;;;;;;;;;;;;;-142.25;100.00;58004.16;4913131;29;19964;-67
2023/04/15 10:44:09;;;;;;;;;;;;;;;-142.25;100.00;58004.16;4910996;29;19994;-67
2023/04/15 10:46:39;;;;;;;;;;;;;;;-142.25;100.00;58004.16;4913920;29;19951;-67
2023/04/15 10:49:09;;;;;;;;;;;;;;;-142.25;100.00;58004.16;4912237;29;19947;-66
2023/04/15 10:51:37;;;;;;;;;;;;;;;-142.25;100.00;58004.16;4910150;29;19977;-65
2023/04/15 10:54:07;;;;;;;;;;;;;;;-142.25;100.00;58004.16;4912774;29;19945;-65
2023/04/15 10:56:33;;;;;;;;;;;;;;;-142.25;100.00;58004.16;4912983;29;19954;-65
2023/04/15 10:58:59;;;;;;;;;;;;;;;-142.25;100.00;58004.16;4912727;29;19970;-69
2023/04/15 11:01:49;;;;;;;;;;;;;;;-142.25;100.00;58004.16;4912108;29;20441;-66
2023/04/15 11:04:37;;;;;;;;;;;;;;;-142.25;100.00;58004.16;4913889;29;19952;-67
2023/04/15 11:07:06;;;;;;;;;;;;;;;-142.25;100.00;58004.16;4912450;29;19943;-68
2023/04/15 11:09:35;;;;;;;;;;;;;;;-142.25;100.00;58004.16;4911739;29;20008;-68
2023/04/15 11:12:08;;;;;;;;;;;;;;;-142.25;100.00;58004.16;4911446;29;19940;-67
2023/04/15 11:14:38;;;;;;;;;;;;;;;-142.25;100.00;58004.16;4913291;29;19957;-66
2023/04/15 11:17:03;;;;;;;;;;;;;;;-142.25;100.00;58004.16;4910991;29;19946;-67
2023/04/15 11:19:35;;;;;;;;;;;;;;;-142.25;100.00;58004.16;4913406;29;20467;-66
2023/04/15 11:22:08;;;;;;;;;;;;;;;-142.25;100.00;58004.16;4913154;29;20422;-68
2023/04/15 11:24:33;;;;;;;;;;;;;;;-142.25;100.00;58004.16;4894902;29;19941;-68
2023/04/15 11:27:00;;;;;;;;;;;;;;;-142.25;100.00;58004.16;4910957;29;19971;-66
2023/04/15 11:29:32;;;;;;;;;;;;;;;-142.25;100.00;58004.16;4911173;29;19954;-65
2023/04/15 11:32:03;;;;;;;;;;;;;;;-142.25;100.00;58004.16;4912025;29;19944;-64
2023/04/15 11:34:30;;;;;;;;;;;;;;;-142.25;100.00;58004.16;4910580;29;19989;-66
2023/04/15 11:36:56;;;;;;;;;;;;;;;-142.25;100.00;58004.16;4912668;29;20039;-65
2023/04/15 11:39:21;;;;;;;;;;;;;;;-142.25;100.00;58004.16;4909631;29;19944;-69
2023/04/15 11:41:46;;;;;;;;;;;;;;;-142.25;100.00;58004.16;4912966;29;20286;-69
2023/04/15 11:44:16;;;;;;;;;;;;;;;-142.25;100.00;58004.16;4910996;29;19950;-69
2023/04/15 11:46:42;;;;;;;;;;;;;;;-142.25;100.00;58004.16;4910059;29;19958;-69
2023/04/15 11:49:07;;;;;;;;;;;;;;;-142.25;100.00;58004.16;4910681;29;20396;-68
2023/04/15 11:51:33;;;;;;;;;;;;;;;-142.25;100.00;58004.16;4910273;29;19949;-68
2023/04/15 11:53:59;;;;;;;;;;;;;;;-142.25;100.00;58004.16;4909242;29;20516;-69
2023/04/15 11:56:25;;;;;;;;;;;;;;;-142.25;100.00;58004.16;4926005;29;19961;-68
2023/04/15 11:58:52;;;;;;;;;;;;;;;-142.25;100.00;58004.16;4911965;29;19962;-69
2023/04/15 12:01:17;;;;;;;;;;;;;;;-142.25;100.00;58004.16;4911520;29;19960;-67
2023/04/15 12:03:47;;;;;;;;;;;;;;;-142.25;100.00;58004.16;4913347;29;19954;-71
2023/04/15 12:06:19;;;;;;;;;;;;;;;-142.25;100.00;58004.16;4911233;29;19955;-70
2023/04/15 12:08:48;;;;;;;;;;;;;;;-142.25;100.00;58004.16;4913328;29;20473;-72
2023/04/15 12:11:17;;;;;;;;;;;;;;;-142.25;100.00;58004.16;4913941;29;19950;-70
2023/04/15 12:13:47;;;;;;;;;;;;;;;-142.25;100.00;58004.16;4913120;29;19947;-69
2023/04/15 12:16:15;;;;;;;;;;;;;;;-142.25;100.00;58004.16;4912702;29;20185;-68